createdAt,value
2022-12-18T00:00:37.008Z,51.216133
2022-12-18T00:01:37.078Z,51.216061
2022-12-18T00:02:37.116Z,51.216026
2022-12-18T00:03:37.448Z,51.216061
2022-12-18T00:04:36.995Z,51.216049
2022-12-18T00:05:36.991Z,51.216072
2022-12-18T00:06:37.006Z,51.216118
2022-12-18T00:07:37.004Z,51.216129
2022-12-18T00:08:36.964Z,51.216064
2022-12-18T00:09:40.344Z,51.216103
2022-12-18T00:10:36.955Z,51.216114
2022-12-18T00:11:36.962Z,51.216114
2022-12-18T00:12:36.959Z,51.216076
2022-12-18T00:13:37.310Z,51.216057
2022-12-18T00:14:36.938Z,51.216049
2022-12-18T00:15:36.928Z,51.216076
2022-12-18T00:16:36.990Z,51.216007
2022-12-18T00:17:36.931Z,51.215992
2022-12-18T00:18:37.317Z,51.215916
2022-12-18T00:19:36.905Z,51.216042
2022-12-18T00:20:36.899Z,51.216087
2022-12-18T00:21:36.891Z,51.216034
2022-12-18T00:22:36.879Z,51.216084
2022-12-18T00:23:37.329Z,51.216103
2022-12-18T00:24:36.870Z,51.216053
2022-12-18T00:25:36.867Z,51.216114
2022-12-18T00:26:36.878Z,51.216076
2022-12-18T00:27:36.856Z,51.216072
2022-12-18T00:28:36.856Z,51.216068
2022-12-18T00:29:36.862Z,51.216167
2022-12-18T00:30:36.845Z,51.216015
2022-12-18T00:31:36.906Z,51.216068
2022-12-18T00:32:36.823Z,51.216137
2022-12-18T00:33:37.226Z,51.216110
2022-12-18T00:34:36.819Z,51.216084
2022-12-18T00:35:36.817Z,51.216129
2022-12-18T00:36:36.806Z,51.216076
2022-12-18T00:37:36.804Z,51.216156
2022-12-18T00:38:36.808Z,51.216122
2022-12-18T00:39:36.802Z,51.216007
2022-12-18T00:40:36.800Z,51.216019
2022-12-18T00:41:36.782Z,51.216007
2022-12-18T00:42:36.773Z,51.216148
2022-12-18T00:43:37.296Z,51.216080
2022-12-18T00:44:36.789Z,51.216049
2022-12-18T00:45:36.796Z,51.216122
2022-12-18T00:46:36.751Z,51.216057
2022-12-18T00:47:36.743Z,51.216091
2022-12-18T00:48:36.751Z,51.216057
2022-12-18T00:49:36.731Z,51.216087
2022-12-18T00:50:36.741Z,51.216122
2022-12-18T00:51:36.716Z,51.216072
2022-12-18T00:52:36.734Z,51.216045
2022-12-18T00:53:37.030Z,51.216057
2022-12-18T00:54:36.707Z,51.216030
2022-12-18T00:55:36.695Z,51.216095
2022-12-18T00:56:39.381Z,51.216068
2022-12-18T00:57:37.692Z,51.216038
2022-12-18T00:58:36.678Z,51.216042
2022-12-18T00:59:36.693Z,51.216057
2022-12-18T01:00:36.761Z,51.216080
2022-12-18T01:01:36.736Z,51.216099
2022-12-18T01:02:36.720Z,51.216141
2022-12-18T01:03:36.896Z,51.216049
2022-12-18T01:04:36.742Z,51.216072
2022-12-18T01:05:36.638Z,51.216099
2022-12-18T01:06:36.635Z,51.216038
2022-12-18T01:07:36.631Z,51.216053
2022-12-18T01:08:36.631Z,51.216080
2022-12-18T01:09:36.631Z,51.216118
2022-12-18T01:10:36.630Z,51.216015
2022-12-18T01:11:36.600Z,51.216053
2022-12-18T01:12:36.602Z,51.216053
2022-12-18T01:13:37.016Z,51.216049
2022-12-18T01:14:36.605Z,51.216106
2022-12-18T01:15:36.578Z,51.216045
2022-12-18T01:16:36.651Z,51.216084
2022-12-18T01:17:36.562Z,51.216049
2022-12-18T01:18:36.588Z,51.216080
2022-12-18T01:19:36.575Z,51.216122
2022-12-18T01:20:36.563Z,51.216114
2022-12-18T01:21:36.550Z,51.216118
2022-12-18T01:22:36.530Z,51.216080
2022-12-18T01:23:37.003Z,51.216053
2022-12-18T01:24:36.532Z,51.216084
2022-12-18T01:25:36.544Z,51.216095
2022-12-18T01:26:36.559Z,51.216118
2022-12-18T01:27:36.513Z,51.216087
2022-12-18T01:28:36.508Z,51.216099
2022-12-18T01:29:36.499Z,51.216091
2022-12-18T01:30:36.522Z,51.216103
2022-12-18T01:31:36.548Z,51.216057
2022-12-18T01:32:36.488Z,51.216080
2022-12-18T01:33:36.822Z,51.216053
2022-12-18T01:34:36.474Z,51.216049
2022-12-18T01:35:36.468Z,51.216000
2022-12-18T01:36:36.453Z,51.216030
2022-12-18T01:37:36.494Z,51.216076
2022-12-18T01:38:36.462Z,51.216007
2022-12-18T01:39:36.434Z,51.216064
2022-12-18T01:40:36.442Z,51.216011
2022-12-18T01:41:36.432Z,51.216068
2022-12-18T01:42:36.427Z,51.216034
2022-12-18T01:43:36.852Z,51.216072
2022-12-18T01:44:36.421Z,51.215961
2022-12-18T01:45:36.436Z,51.215874
2022-12-18T01:46:36.410Z,51.215939
2022-12-18T01:47:36.402Z,51.215988
2022-12-18T01:48:36.415Z,51.215988
2022-12-18T01:49:36.390Z,51.215942
2022-12-18T01:50:36.378Z,51.216015
2022-12-18T01:51:36.374Z,51.216190
2022-12-18T01:52:36.377Z,51.216232
2022-12-18T01:53:36.725Z,51.216137
2022-12-18T01:54:36.355Z,51.216099
2022-12-18T01:55:36.362Z,51.216164
2022-12-18T01:56:36.346Z,51.216030
2022-12-18T01:57:36.330Z,51.216087
2022-12-18T01:58:36.343Z,51.216118
2022-12-18T01:59:36.335Z,51.216076
2022-12-18T02:00:36.315Z,51.216049
2022-12-18T02:01:36.457Z,51.216099
2022-12-18T02:02:36.493Z,51.216099
2022-12-18T02:03:36.761Z,51.216187
2022-12-18T02:04:36.323Z,51.216183
2022-12-18T02:05:36.301Z,51.216133
2022-12-18T02:06:36.294Z,51.216183
2022-12-18T02:07:36.282Z,51.216228
2022-12-18T02:08:36.275Z,51.216156
2022-12-18T02:09:36.278Z,51.216225
2022-12-18T02:10:36.276Z,51.216221
2022-12-18T02:11:36.258Z,51.216122
2022-12-18T02:12:36.330Z,51.216206
2022-12-18T02:13:37.543Z,51.216190
2022-12-18T02:14:36.243Z,51.216122
2022-12-18T02:15:36.251Z,51.215988
2022-12-18T02:16:36.269Z,51.216129
2022-12-18T02:17:36.222Z,51.216003
2022-12-18T02:18:36.218Z,51.216030
2022-12-18T02:19:36.213Z,51.216030
2022-12-18T02:20:36.233Z,51.216003
2022-12-18T02:21:36.203Z,51.216160
2022-12-18T02:22:36.202Z,51.216141
2022-12-18T02:23:36.679Z,51.216061
2022-12-18T02:24:36.178Z,51.216099
2022-12-18T02:25:36.203Z,51.216129
2022-12-18T02:26:36.194Z,51.216099
2022-12-18T02:27:36.171Z,51.216141
2022-12-18T02:28:36.260Z,51.216064
2022-12-18T02:29:36.162Z,51.216133
2022-12-18T02:30:36.191Z,51.216148
2022-12-18T02:31:36.152Z,51.216103
2022-12-18T02:32:36.147Z,51.216133
2022-12-18T02:33:36.574Z,51.216183
2022-12-18T02:34:36.134Z,51.216171
2022-12-18T02:35:36.156Z,51.216114
2022-12-18T02:36:36.127Z,51.216175
2022-12-18T02:37:36.159Z,51.216198
2022-12-18T02:38:36.115Z,51.216148
2022-12-18T02:39:36.103Z,51.216080
2022-12-18T02:40:36.153Z,51.215988
2022-12-18T02:41:36.087Z,51.215927
2022-12-18T02:42:36.086Z,51.216125
2022-12-18T02:43:36.277Z,51.216125
2022-12-18T02:44:36.173Z,51.216133
2022-12-18T02:45:36.176Z,51.216064
2022-12-18T02:46:36.078Z,51.216084
2022-12-18T02:47:36.070Z,51.216049
2022-12-18T02:48:36.059Z,51.216164
2022-12-18T02:49:36.051Z,51.216038
2022-12-18T02:50:36.056Z,51.216106
2022-12-18T02:51:36.063Z,51.216183
2022-12-18T02:52:36.075Z,51.216152
2022-12-18T02:53:36.330Z,51.216133
2022-12-18T02:54:36.022Z,51.216190
2022-12-18T02:55:36.030Z,51.216206
2022-12-18T02:56:36.015Z,51.216179
2022-12-18T02:57:36.025Z,51.216007
2022-12-18T02:58:36.005Z,51.215813
2022-12-18T02:59:36.000Z,51.215710
2022-12-18T03:00:36.098Z,51.215740
2022-12-18T03:01:36.145Z,51.215668
2022-12-18T03:02:36.143Z,51.215881
2022-12-18T03:03:36.351Z,51.215969
2022-12-18T03:04:35.966Z,51.216091
2022-12-18T03:05:35.946Z,51.216118
2022-12-18T03:06:35.959Z,51.215916
2022-12-18T03:07:35.963Z,51.215862
2022-12-18T03:08:35.938Z,51.215965
2022-12-18T03:09:35.950Z,51.216091
2022-12-18T03:10:35.934Z,51.216148
2022-12-18T03:11:35.927Z,51.216122
2022-12-18T03:12:35.930Z,51.216030
2022-12-18T03:13:36.301Z,51.216003
2022-12-18T03:14:35.910Z,51.216034
2022-12-18T03:15:35.904Z,51.216015
2022-12-18T03:16:36.037Z,51.216034
2022-12-18T03:17:36.057Z,51.216072
2022-12-18T03:18:35.889Z,51.216099
2022-12-18T03:19:35.884Z,51.216194
2022-12-18T03:20:35.901Z,51.216133
2022-12-18T03:21:35.866Z,51.216160
2022-12-18T03:22:35.901Z,51.216175
2022-12-18T03:23:35.866Z,51.216133
2022-12-18T03:24:36.406Z,51.216171
2022-12-18T03:25:35.850Z,51.216236
2022-12-18T03:26:35.839Z,51.216251
2022-12-18T03:27:35.838Z,51.216183
2022-12-18T03:28:35.832Z,51.216202
2022-12-18T03:29:35.825Z,51.216179
2022-12-18T03:30:35.859Z,51.216148
2022-12-18T03:31:35.814Z,51.216164
2022-12-18T03:32:35.921Z,51.216118
2022-12-18T03:33:36.120Z,51.216145
2022-12-18T03:34:35.818Z,51.216213
2022-12-18T03:35:35.791Z,51.216255
2022-12-18T03:36:35.775Z,51.216236
2022-12-18T03:37:35.782Z,51.216263
2022-12-18T03:38:35.766Z,51.216251
2022-12-18T03:39:35.753Z,51.216232
2022-12-18T03:40:35.769Z,51.216274
2022-12-18T03:41:35.751Z,51.216248
2022-12-18T03:42:35.746Z,51.216274
2022-12-18T03:43:35.771Z,51.216305
2022-12-18T03:44:35.731Z,51.216286
2022-12-18T03:45:35.738Z,51.216370
2022-12-18T03:46:35.717Z,51.216423
2022-12-18T03:47:35.722Z,51.216301
2022-12-18T03:48:35.821Z,51.216190
2022-12-18T03:49:35.706Z,51.216263
2022-12-18T03:50:35.706Z,51.216301
2022-12-18T03:51:35.694Z,51.216339
2022-12-18T03:52:35.687Z,51.216290
2022-12-18T03:53:35.705Z,51.216290
2022-12-18T03:54:35.674Z,51.216232
2022-12-18T03:55:35.675Z,51.216320
2022-12-18T03:56:35.670Z,51.216320
2022-12-18T03:57:35.661Z,51.216370
2022-12-18T03:58:35.678Z,51.216347
2022-12-18T03:59:35.654Z,51.216248
2022-12-18T04:00:35.647Z,51.216248
2022-12-18T04:01:35.730Z,51.216278
2022-12-18T04:02:35.814Z,51.216255
2022-12-18T04:03:36.520Z,51.216209
2022-12-18T04:04:36.727Z,51.216274
2022-12-18T04:05:35.622Z,51.216133
2022-12-18T04:06:35.616Z,51.216129
2022-12-18T04:07:36.382Z,51.216232
2022-12-18T04:08:35.620Z,51.216244
2022-12-18T04:09:35.604Z,51.216045
2022-12-18T04:10:35.590Z,51.216106
2022-12-18T04:11:35.588Z,51.216202
2022-12-18T04:12:35.574Z,51.216270
2022-12-18T04:13:35.568Z,51.216255
2022-12-18T04:14:35.595Z,51.216133
2022-12-18T04:15:35.730Z,51.216042
2022-12-18T04:16:35.555Z,51.216057
2022-12-18T04:17:35.549Z,51.216106
2022-12-18T04:18:35.541Z,51.216236
2022-12-18T04:19:35.551Z,51.216331
2022-12-18T04:20:35.628Z,51.216103
2022-12-18T04:21:35.546Z,51.216015
2022-12-18T04:22:35.530Z,51.216103
2022-12-18T04:23:35.524Z,51.216183
2022-12-18T04:24:35.518Z,51.216129
2022-12-18T04:25:35.503Z,51.215942
2022-12-18T04:26:35.510Z,51.216148
2022-12-18T04:27:35.499Z,51.216202
2022-12-18T04:28:35.492Z,51.216187
2022-12-18T04:29:35.482Z,51.216106
2022-12-18T04:30:35.496Z,51.216099
2022-12-18T04:31:35.551Z,51.216183
2022-12-18T04:32:35.493Z,51.216152
2022-12-18T04:33:35.452Z,51.216148
2022-12-18T04:34:35.441Z,51.216057
2022-12-18T04:35:35.455Z,51.216148
2022-12-18T04:36:35.564Z,51.216145
2022-12-18T04:37:35.418Z,51.216225
2022-12-18T04:38:35.422Z,51.216022
2022-12-18T04:39:35.414Z,51.216011
2022-12-18T04:40:35.413Z,51.216030
2022-12-18T04:41:35.410Z,51.216091
2022-12-18T04:42:35.501Z,51.215988
2022-12-18T04:43:35.402Z,51.216156
2022-12-18T04:44:35.394Z,51.216003
2022-12-18T04:45:35.401Z,51.215527
2022-12-18T04:46:35.415Z,51.215515
2022-12-18T04:47:35.381Z,51.215340
2022-12-18T04:48:35.370Z,51.215515
2022-12-18T04:49:35.388Z,51.215683
2022-12-18T04:50:35.381Z,51.215958
2022-12-18T04:51:35.346Z,51.215900
2022-12-18T04:52:35.433Z,51.215771
2022-12-18T04:53:35.346Z,51.215759
2022-12-18T04:54:35.338Z,51.215836
2022-12-18T04:55:35.346Z,51.216145
2022-12-18T04:56:35.353Z,51.216091
2022-12-18T04:57:35.323Z,51.216175
2022-12-18T04:58:35.307Z,51.216221
2022-12-18T04:59:35.295Z,51.216125
2022-12-18T05:00:35.286Z,51.215981
2022-12-18T05:01:35.562Z,51.215908
2022-12-18T05:02:35.430Z,51.215752
2022-12-18T05:03:35.369Z,51.215977
2022-12-18T05:04:35.275Z,51.216072
2022-12-18T05:05:35.270Z,51.216114
2022-12-18T05:06:35.262Z,51.216171
2022-12-18T05:07:35.241Z,51.216267
2022-12-18T05:08:35.329Z,51.216187
2022-12-18T05:09:35.242Z,51.216141
2022-12-18T05:10:38.346Z,51.216038
2022-12-18T05:11:36.233Z,51.216156
2022-12-18T05:12:35.234Z,51.216167
2022-12-18T05:13:35.214Z,51.216187
2022-12-18T05:14:35.215Z,51.216026
2022-12-18T05:15:35.299Z,51.216057
2022-12-18T05:16:35.230Z,51.216076
2022-12-18T05:17:35.222Z,51.216129
2022-12-18T05:18:35.190Z,51.216057
2022-12-18T05:19:35.178Z,51.216057
2022-12-18T05:20:35.176Z,51.216011
2022-12-18T05:21:35.174Z,51.216125
2022-12-18T05:22:35.180Z,51.215881
2022-12-18T05:23:35.174Z,51.215973
2022-12-18T05:24:35.247Z,51.216064
2022-12-18T05:25:35.138Z,51.216007
2022-12-18T05:26:35.138Z,51.215832
2022-12-18T05:27:35.136Z,51.215919
2022-12-18T05:28:35.144Z,51.215954
2022-12-18T05:29:35.119Z,51.215736
2022-12-18T05:30:35.118Z,51.215843
2022-12-18T05:31:39.422Z,51.215885
2022-12-18T05:32:36.109Z,51.216110
2022-12-18T05:33:35.121Z,51.216015
2022-12-18T05:34:35.090Z,51.215889
2022-12-18T05:35:35.083Z,51.215942
2022-12-18T05:36:35.086Z,51.215630
2022-12-18T05:37:41.045Z,51.215969
2022-12-18T05:38:37.082Z,51.215755
2022-12-18T05:39:35.066Z,51.215778
2022-12-18T05:40:35.160Z,51.215954
2022-12-18T05:41:35.087Z,51.216022
2022-12-18T05:42:35.042Z,51.215988
2022-12-18T05:43:35.042Z,51.215736
2022-12-18T05:44:35.042Z,51.216019
2022-12-18T05:45:35.030Z,51.216045
2022-12-18T05:46:35.061Z,51.215889
2022-12-18T05:47:35.013Z,51.216026
2022-12-18T05:48:35.006Z,51.216022
2022-12-18T05:49:35.009Z,51.215977
2022-12-18T05:50:34.993Z,51.216026
2022-12-18T05:51:34.985Z,51.216019
2022-12-18T05:52:34.980Z,51.216099
2022-12-18T05:53:34.972Z,51.216019
2022-12-18T05:54:34.978Z,51.216076
2022-12-18T05:55:34.962Z,51.215973
2022-12-18T05:56:35.032Z,51.216026
2022-12-18T05:57:35.940Z,51.216141
2022-12-18T05:58:35.947Z,51.216084
2022-12-18T05:59:34.942Z,51.216053
2022-12-18T06:00:34.926Z,51.215965
2022-12-18T06:01:35.068Z,51.215919
2022-12-18T06:02:34.973Z,51.216095
2022-12-18T06:03:35.003Z,51.216026
2022-12-18T06:04:34.914Z,51.215992
2022-12-18T06:05:34.902Z,51.216084
2022-12-18T06:06:34.897Z,51.216167
2022-12-18T06:07:34.890Z,51.216179
2022-12-18T06:08:34.882Z,51.216137
2022-12-18T06:09:34.893Z,51.216175
2022-12-18T06:10:34.890Z,51.216194
2022-12-18T06:11:34.862Z,51.216049
2022-12-18T06:12:34.968Z,51.215988
2022-12-18T06:13:34.855Z,51.215927
2022-12-18T06:14:34.847Z,51.216095
2022-12-18T06:15:34.881Z,51.216137
2022-12-18T06:16:34.903Z,51.216141
2022-12-18T06:17:35.426Z,51.216099
2022-12-18T06:18:34.829Z,51.216110
2022-12-18T06:19:34.818Z,51.216103
2022-12-18T06:20:34.826Z,51.216103
2022-12-18T06:21:34.817Z,51.216110
2022-12-18T06:22:34.797Z,51.216187
2022-12-18T06:23:34.798Z,51.216240
2022-12-18T06:24:34.794Z,51.216213
2022-12-18T06:25:34.805Z,51.216221
2022-12-18T06:26:34.786Z,51.216167
2022-12-18T06:27:34.781Z,51.216145
2022-12-18T06:28:34.878Z,51.216145
2022-12-18T06:29:34.762Z,51.216145
2022-12-18T06:30:34.773Z,51.216156
2022-12-18T06:31:34.777Z,51.216167
2022-12-18T06:32:34.741Z,51.216187
2022-12-18T06:33:34.731Z,51.216179
2022-12-18T06:34:34.738Z,51.216156
2022-12-18T06:35:34.751Z,51.216061
2022-12-18T06:36:34.723Z,51.216118
2022-12-18T06:37:34.710Z,51.216217
2022-12-18T06:38:34.721Z,51.216164
2022-12-18T06:39:34.725Z,51.216217
2022-12-18T06:40:34.706Z,51.216206
2022-12-18T06:41:34.701Z,51.216244
2022-12-18T06:42:34.685Z,51.216213
2022-12-18T06:43:34.691Z,51.216145
2022-12-18T06:44:34.761Z,51.216198
2022-12-18T06:45:34.723Z,51.216133
2022-12-18T06:46:34.676Z,51.215981
2022-12-18T06:47:34.669Z,51.215950
2022-12-18T06:48:34.666Z,51.216068
2022-12-18T06:49:34.652Z,51.216038
2022-12-18T06:50:34.637Z,51.216072
2022-12-18T06:51:34.637Z,51.216167
2022-12-18T06:52:34.647Z,51.216152
2022-12-18T06:53:34.616Z,51.216187
2022-12-18T06:54:34.613Z,51.216171
2022-12-18T06:55:34.613Z,51.216183
2022-12-18T06:56:34.599Z,51.216152
2022-12-18T06:57:34.617Z,51.216125
2022-12-18T06:58:34.598Z,51.216160
2022-12-18T06:59:34.583Z,51.216141
2022-12-18T07:00:34.657Z,51.216072
2022-12-18T07:01:35.740Z,51.216106
2022-12-18T07:02:34.718Z,51.216091
2022-12-18T07:03:35.386Z,51.216084
2022-12-18T07:04:34.565Z,51.216000
2022-12-18T07:05:34.561Z,51.216042
2022-12-18T07:06:34.565Z,51.216057
2022-12-18T07:07:34.541Z,51.216057
2022-12-18T07:08:34.553Z,51.216091
2022-12-18T07:09:34.530Z,51.216091
2022-12-18T07:10:34.529Z,51.216129
2022-12-18T07:11:34.525Z,51.216103
2022-12-18T07:12:34.527Z,51.216145
2022-12-18T07:13:34.514Z,51.216190
2022-12-18T07:14:34.507Z,51.216206
2022-12-18T07:15:34.487Z,51.216095
2022-12-18T07:16:34.638Z,51.216164
2022-12-18T07:17:34.477Z,51.216167
2022-12-18T07:18:34.477Z,51.216145
2022-12-18T07:19:34.466Z,51.216217
2022-12-18T07:20:34.461Z,51.216183
2022-12-18T07:21:34.455Z,51.216045
2022-12-18T07:22:34.445Z,51.216106
2022-12-18T07:23:34.465Z,51.216137
2022-12-18T07:24:34.469Z,51.216145
2022-12-18T07:25:34.426Z,51.216152
2022-12-18T07:26:34.417Z,51.216171
2022-12-18T07:27:34.413Z,51.216194
2022-12-18T07:28:34.406Z,51.216206
2022-12-18T07:29:34.421Z,51.216179
2022-12-18T07:30:34.403Z,51.216194
2022-12-18T07:31:34.462Z,51.216179
2022-12-18T07:32:34.478Z,51.216160
2022-12-18T07:33:34.386Z,51.216152
2022-12-18T07:34:34.389Z,51.216160
2022-12-18T07:35:34.367Z,51.216160
2022-12-18T07:36:34.365Z,51.216171
2022-12-18T07:37:34.352Z,51.216106
2022-12-18T07:38:34.351Z,51.216202
2022-12-18T07:39:34.353Z,51.216171
2022-12-18T07:40:34.341Z,51.216118
2022-12-18T07:41:34.339Z,51.216026
2022-12-18T07:42:34.334Z,51.216152
2022-12-18T07:43:34.338Z,51.216122
2022-12-18T07:44:34.313Z,51.216187
2022-12-18T07:45:34.352Z,51.216183
2022-12-18T07:46:34.337Z,51.216145
2022-12-18T07:47:34.302Z,51.216148
2022-12-18T07:48:34.445Z,51.216213
2022-12-18T07:49:34.296Z,51.216137
2022-12-18T07:50:34.313Z,51.216187
2022-12-18T07:51:34.281Z,51.216145
2022-12-18T07:52:34.266Z,51.216026
2022-12-18T07:53:34.272Z,51.215984
2022-12-18T07:54:34.253Z,51.216152
2022-12-18T07:55:54.703Z,51.216164
2022-12-18T07:56:36.250Z,51.216118
2022-12-18T07:57:50.181Z,51.216118
2022-12-18T07:58:36.238Z,51.216114
2022-12-18T07:59:34.230Z,51.216118
2022-12-18T08:00:34.222Z,51.216091
2022-12-18T08:01:34.335Z,51.216133
2022-12-18T08:02:34.404Z,51.216011
2022-12-18T08:03:34.209Z,51.215942
2022-12-18T08:04:34.299Z,51.215767
2022-12-18T08:05:34.212Z,51.215885
2022-12-18T08:06:34.213Z,51.215992
2022-12-18T08:07:34.181Z,51.215958
2022-12-18T08:08:34.182Z,51.216064
2022-12-18T08:09:34.165Z,51.215908
2022-12-18T08:10:34.156Z,51.215847
2022-12-18T08:11:34.183Z,51.216022
2022-12-18T08:12:34.164Z,51.216145
2022-12-18T08:13:35.161Z,51.216183
2022-12-18T08:14:34.155Z,51.216217
2022-12-18T08:15:34.221Z,51.216129
2022-12-18T08:16:34.234Z,51.216278
2022-12-18T08:17:34.156Z,51.216091
2022-12-18T08:18:34.121Z,51.215939
2022-12-18T08:19:34.115Z,51.215965
2022-12-18T08:20:35.210Z,51.216007
2022-12-18T08:21:34.111Z,51.216042
2022-12-18T08:22:34.095Z,51.216167
2022-12-18T08:23:37.976Z,51.216045
2022-12-18T08:24:35.111Z,51.216022
2022-12-18T08:25:34.095Z,51.216133
2022-12-18T08:26:34.093Z,51.216297
2022-12-18T08:27:34.126Z,51.216278
2022-12-18T08:28:34.118Z,51.216095
2022-12-18T08:29:34.055Z,51.216057
2022-12-18T08:30:34.111Z,51.216099
2022-12-18T08:31:34.132Z,51.216061
2022-12-18T08:32:34.033Z,51.216057
2022-12-18T08:33:34.038Z,51.216160
2022-12-18T08:34:34.029Z,51.216160
2022-12-18T08:35:37.882Z,51.216171
2022-12-18T08:36:36.097Z,51.216209
2022-12-18T08:37:34.055Z,51.216251
2022-12-18T08:38:34.001Z,51.216248
2022-12-18T08:39:33.990Z,51.216194
2022-12-18T08:40:33.970Z,51.216145
2022-12-18T08:41:33.980Z,51.216148
2022-12-18T08:42:33.978Z,51.216152
2022-12-18T08:43:33.957Z,51.216103
2022-12-18T08:44:33.961Z,51.215786
2022-12-18T08:45:33.950Z,51.215908
2022-12-18T08:46:34.057Z,51.215969
2022-12-18T08:47:33.939Z,51.216030
2022-12-18T08:48:33.942Z,51.216175
2022-12-18T08:49:33.940Z,51.216049
2022-12-18T08:50:33.915Z,51.216095
2022-12-18T08:51:33.907Z,51.216137
2022-12-18T08:52:39.824Z,51.216206
2022-12-18T08:53:35.874Z,51.216187
2022-12-18T08:54:34.895Z,51.216167
2022-12-18T08:55:33.876Z,51.216106
2022-12-18T08:56:33.870Z,51.216030
2022-12-18T08:57:33.872Z,51.216076
2022-12-18T08:58:33.861Z,51.216118
2022-12-18T08:59:33.868Z,51.216026
2022-12-18T09:00:33.851Z,51.216030
2022-12-18T09:01:34.015Z,51.216061
2022-12-18T09:02:34.030Z,51.216049
2022-12-18T09:03:33.914Z,51.216103
2022-12-18T09:04:33.857Z,51.216091
2022-12-18T09:05:33.815Z,51.216030
2022-12-18T09:06:33.807Z,51.216053
2022-12-18T09:07:33.804Z,51.216118
2022-12-18T09:08:33.786Z,51.216103
2022-12-18T09:09:33.865Z,51.216110
2022-12-18T09:10:36.504Z,51.216331
2022-12-18T09:11:34.776Z,51.216274
2022-12-18T09:12:33.791Z,51.216042
2022-12-18T09:13:33.755Z,51.215828
2022-12-18T09:14:33.751Z,51.215988
2022-12-18T09:15:33.756Z,51.216076
2022-12-18T09:16:33.814Z,51.215965
2022-12-18T09:17:33.731Z,51.216053
2022-12-18T09:18:33.725Z,51.216099
2022-12-18T09:19:33.719Z,51.216076
2022-12-18T09:20:33.738Z,51.216076
2022-12-18T09:21:35.796Z,51.216026
2022-12-18T09:22:33.687Z,51.216042
2022-12-18T09:23:33.678Z,51.216007
2022-12-18T09:24:33.676Z,51.216080
2022-12-18T09:25:33.773Z,51.216106
2022-12-18T09:26:33.688Z,51.216133
2022-12-18T09:27:33.646Z,51.216091
2022-12-18T09:28:33.642Z,51.216095
2022-12-18T09:29:33.662Z,51.216141
2022-12-18T09:30:33.657Z,51.216141
2022-12-18T09:31:33.645Z,51.216042
2022-12-18T09:32:33.615Z,51.216007
2022-12-18T09:33:33.606Z,51.216053
2022-12-18T09:34:33.610Z,51.216156
2022-12-18T09:35:33.644Z,51.216118
2022-12-18T09:36:33.783Z,51.216114
2022-12-18T09:37:33.591Z,51.216156
2022-12-18T09:38:33.562Z,51.216145
2022-12-18T09:39:33.567Z,51.216122
2022-12-18T09:40:34.158Z,51.216164
2022-12-18T09:41:33.646Z,51.216240
2022-12-18T09:42:33.566Z,51.216171
2022-12-18T09:43:33.546Z,51.216236
2022-12-18T09:44:33.543Z,51.216282
2022-12-18T09:45:33.527Z,51.216095
2022-12-18T09:46:33.612Z,51.216114
2022-12-18T09:47:33.522Z,51.216179
2022-12-18T09:48:33.515Z,51.216328
2022-12-18T09:49:33.506Z,51.216137
2022-12-18T09:50:33.482Z,51.216125
2022-12-18T09:51:33.490Z,51.216106
2022-12-18T09:52:33.471Z,51.216080
2022-12-18T09:53:33.483Z,51.216209
2022-12-18T09:54:33.467Z,51.216194
2022-12-18T09:55:37.147Z,51.216141
2022-12-18T09:56:34.458Z,51.216122
2022-12-18T09:57:33.533Z,51.216167
2022-12-18T09:58:33.459Z,51.216190
2022-12-18T09:59:33.443Z,51.216221
2022-12-18T10:00:33.427Z,51.216206
2022-12-18T10:01:41.528Z,51.216145
2022-12-18T10:02:35.485Z,51.216179
2022-12-18T10:03:33.418Z,51.216156
2022-12-18T10:04:33.481Z,51.216171
2022-12-18T10:05:33.384Z,51.216164
2022-12-18T10:06:33.386Z,51.216087
2022-12-18T10:07:33.381Z,51.216190
2022-12-18T10:08:33.390Z,51.216099
2022-12-18T10:09:33.381Z,51.216114
2022-12-18T10:10:33.359Z,51.216095
2022-12-18T10:11:33.342Z,51.216137
2022-12-18T10:12:33.339Z,51.216160
2022-12-18T10:13:33.431Z,51.216202
2022-12-18T10:14:33.332Z,51.216179
2022-12-18T10:15:33.377Z,51.216171
2022-12-18T10:16:33.325Z,51.216198
2022-12-18T10:17:33.308Z,51.216263
2022-12-18T10:18:33.306Z,51.216236
2022-12-18T10:19:33.291Z,51.216118
2022-12-18T10:20:33.322Z,51.216099
2022-12-18T10:21:34.282Z,51.216179
2022-12-18T10:22:33.276Z,51.216248
2022-12-18T10:23:33.263Z,51.216125
2022-12-18T10:24:33.264Z,51.216007
2022-12-18T10:25:33.253Z,51.216053
2022-12-18T10:26:34.242Z,51.215992
2022-12-18T10:27:33.239Z,51.215679
2022-12-18T10:28:33.230Z,51.215805
2022-12-18T10:29:39.113Z,51.216030
2022-12-18T10:30:34.322Z,51.216042
2022-12-18T10:31:33.238Z,51.215988
2022-12-18T10:32:33.192Z,51.216171
2022-12-18T10:33:33.198Z,51.216103
2022-12-18T10:34:33.191Z,51.216080
2022-12-18T10:35:33.168Z,51.216129
2022-12-18T10:36:33.222Z,51.216110
2022-12-18T10:37:33.166Z,51.216125
2022-12-18T10:38:33.157Z,51.216156
2022-12-18T10:39:33.157Z,51.216160
2022-12-18T10:40:34.433Z,51.216076
2022-12-18T10:41:33.134Z,51.216206
2022-12-18T10:42:33.130Z,51.216072
2022-12-18T10:43:33.126Z,51.216156
2022-12-18T10:44:33.119Z,51.216095
2022-12-18T10:45:33.111Z,51.216022
2022-12-18T10:46:39.206Z,51.215950
2022-12-18T10:47:34.185Z,51.216015
2022-12-18T10:48:33.090Z,51.215958
2022-12-18T10:49:33.091Z,51.215950
2022-12-18T10:51:01.817Z,51.215973
2022-12-18T10:51:35.069Z,51.216049
2022-12-18T10:52:33.069Z,51.215893
2022-12-18T10:53:33.050Z,51.215981
2022-12-18T10:54:34.049Z,51.216118
2022-12-18T10:55:33.033Z,51.216228
2022-12-18T10:56:33.023Z,51.216251
2022-12-18T10:57:33.042Z,51.216076
2022-12-18T10:58:33.015Z,51.216053
2022-12-18T10:59:32.998Z,51.215881
2022-12-18T11:00:32.989Z,51.215965
2022-12-18T11:01:33.086Z,51.215866
2022-12-18T11:02:33.227Z,51.215893
2022-12-18T11:03:33.161Z,51.215908
2022-12-18T11:04:33.051Z,51.215836
2022-12-18T11:05:32.981Z,51.215893
2022-12-18T11:06:32.954Z,51.215927
2022-12-18T11:07:32.958Z,51.216068
2022-12-18T11:08:32.943Z,51.216011
2022-12-18T11:09:32.953Z,51.215950
2022-12-18T11:10:32.930Z,51.216034
2022-12-18T11:11:32.914Z,51.216080
2022-12-18T11:12:32.908Z,51.216183
2022-12-18T11:13:32.907Z,51.216167
2022-12-18T11:14:33.037Z,51.216263
2022-12-18T11:15:32.895Z,51.216209
2022-12-18T11:16:32.927Z,51.216171
2022-12-18T11:17:32.877Z,51.216145
2022-12-18T11:18:32.875Z,51.215988
2022-12-18T11:19:32.974Z,51.215939
2022-12-18T11:20:32.868Z,51.216167
2022-12-18T11:21:32.873Z,51.216118
2022-12-18T11:22:32.837Z,51.216053
2022-12-18T11:23:32.838Z,51.215984
2022-12-18T11:24:32.834Z,51.215939